createdAt,value
2019-02-17T00:01:04.112Z,134.40
2019-02-17T00:03:38.718Z,138.93
2019-02-17T00:06:10.359Z,136.63
2019-02-17T00:08:41.843Z,143.73
2019-02-17T00:11:15.136Z,133.73
2019-02-17T00:13:46.520Z,149.50
2019-02-17T00:16:18.344Z,136.87
2019-02-17T00:18:51.558Z,156.30
2019-02-17T00:21:24.686Z,146.73
2019-02-17T00:23:56.372Z,128.90
2019-02-17T00:26:27.934Z,148.73
2019-02-17T00:29:00.007Z,163.93
2019-02-17T00:31:31.103Z,158.73
2019-02-17T00:34:02.265Z,153.20
2019-02-17T00:36:33.755Z,150.73
2019-02-17T00:39:05.923Z,142.20
2019-02-17T00:41:37.838Z,158.13
2019-02-17T00:44:10.969Z,137.80
2019-02-17T00:46:43.793Z,144.10
2019-02-17T00:49:17.083Z,132.60
2019-02-17T00:51:48.572Z,144.57
2019-02-17T00:54:19.762Z,146.30
2019-02-17T00:56:50.866Z,141.33
2019-02-17T00:59:28.027Z,153.67
2019-02-17T01:01:59.724Z,145.13
2019-02-17T01:04:30.904Z,123.70
2019-02-17T01:07:02.042Z,121.27
2019-02-17T01:09:33.197Z,143.57
2019-02-17T01:12:04.611Z,145.30
2019-02-17T01:14:35.795Z,127.73
2019-02-17T01:17:06.947Z,152.73
2019-02-17T01:19:38.733Z,132.70
2019-02-17T01:22:09.768Z,149.17
2019-02-17T01:24:40.923Z,131.03
2019-02-17T01:27:12.039Z,135.07
2019-02-17T01:29:43.195Z,115.50
2019-02-17T01:32:16.952Z,113.93
2019-02-17T01:34:48.171Z,121.53
2019-02-17T01:37:19.322Z,110.03
2019-02-17T01:39:56.554Z,116.77
2019-02-17T01:42:27.594Z,107.80
2019-02-17T01:44:58.681Z,118.30
2019-02-17T01:47:29.947Z,109.67
2019-02-17T01:50:03.635Z,114.33
2019-02-17T01:52:34.764Z,117.30
2019-02-17T01:55:06.334Z,113.17
2019-02-17T01:57:37.448Z,102.13
2019-02-17T02:00:12.507Z,122.50
2019-02-17T02:02:43.786Z,100.00
2019-02-17T02:05:17.816Z,111.87
2019-02-17T02:07:50.222Z,111.07
2019-02-17T02:10:21.805Z,105.90
2019-02-17T02:12:54.898Z,109.87
2019-02-17T02:15:26.071Z,109.97
2019-02-17T02:17:59.103Z,108.20
2019-02-17T02:20:32.712Z,103.00
2019-02-17T02:23:03.823Z,113.93
2019-02-17T02:25:34.977Z,110.40
2019-02-17T02:28:06.124Z,113.07
2019-02-17T02:30:37.357Z,132.27
2019-02-17T02:33:09.844Z,136.23
2019-02-17T02:35:42.068Z,134.50
2019-02-17T02:38:14.227Z,128.13
2019-02-17T02:40:45.957Z,130.60
2019-02-17T02:43:17.116Z,126.03
2019-02-17T02:45:49.041Z,117.80
2019-02-17T02:48:21.871Z,129.50
2019-02-17T02:50:53.412Z,119.30
2019-02-17T02:53:28.656Z,126.90
2019-02-17T02:55:59.803Z,106.60
2019-02-17T02:58:30.983Z,114.40
2019-02-17T03:01:05.832Z,114.67
2019-02-17T03:03:36.928Z,95.03
2019-02-17T03:06:34.663Z,98.83
2019-02-17T03:09:07.393Z,87.50
2019-02-17T03:11:38.561Z,99.37
2019-02-17T03:14:10.299Z,101.47
2019-02-17T03:16:42.646Z,31.57
2019-02-17T03:19:13.784Z,22.67
2019-02-17T03:21:46.731Z,24.40
2019-02-17T03:24:19.719Z,24.00
2019-02-17T03:26:51.299Z,24.50
2019-02-17T03:29:23.537Z,23.33
2019-02-17T03:31:55.697Z,23.57
2019-02-17T03:34:28.581Z,23.83
2019-02-17T03:37:00.191Z,24.80
2019-02-17T03:39:31.721Z,22.23
2019-02-17T03:42:03.659Z,22.70
2019-02-17T03:44:36.632Z,23.63
2019-02-17T03:47:09.895Z,23.00
2019-02-17T03:49:41.584Z,23.53
2019-02-17T03:52:13.705Z,24.80
2019-02-17T03:54:45.633Z,23.93
2019-02-17T03:57:20.402Z,24.93
2019-02-17T03:59:53.354Z,24.67
2019-02-17T04:02:24.942Z,23.07
2019-02-17T04:04:56.926Z,23.83
2019-02-17T04:07:30.285Z,22.93
2019-02-17T04:10:02.437Z,23.57
2019-02-17T04:12:34.309Z,25.57
2019-02-17T04:15:06.289Z,24.40
2019-02-17T04:17:37.715Z,23.87
2019-02-17T04:20:08.985Z,23.57
2019-02-17T04:22:40.098Z,25.10
2019-02-17T04:25:12.893Z,26.07
2019-02-17T04:27:45.015Z,26.23
2019-02-17T04:30:28.131Z,25.10
2019-02-17T04:32:48.902Z,26.77
2019-02-17T04:35:22.414Z,25.83
2019-02-17T04:37:55.496Z,27.33
2019-02-17T04:40:26.573Z,25.87
2019-02-17T04:42:58.735Z,27.90
2019-02-17T04:45:29.854Z,31.20
2019-02-17T04:48:00.947Z,27.50
2019-02-17T04:50:33.734Z,29.37
2019-02-17T04:53:04.839Z,30.30
2019-02-17T04:55:37.759Z,28.63
2019-02-17T04:58:12.285Z,32.70
2019-02-17T05:00:43.611Z,30.97
2019-02-17T05:03:14.748Z,29.57
2019-02-17T05:05:45.834Z,25.57
2019-02-17T05:08:16.971Z,24.17
2019-02-17T05:10:48.572Z,23.10
2019-02-17T05:13:19.725Z,26.17
2019-02-17T05:15:52.262Z,27.00
2019-02-17T05:18:23.823Z,26.23
2019-02-17T05:20:55.429Z,26.83
2019-02-17T05:23:26.620Z,28.77
2019-02-17T05:25:58.521Z,27.03
2019-02-17T05:28:29.954Z,31.27
2019-02-17T05:31:01.518Z,33.27
2019-02-17T05:33:32.662Z,35.87
2019-02-17T05:36:03.783Z,36.03
2019-02-17T05:38:34.907Z,37.37
2019-02-17T05:41:06.949Z,41.93
2019-02-17T05:43:38.135Z,44.93
2019-02-17T05:46:12.057Z,45.80
2019-02-17T05:48:43.248Z,50.60
2019-02-17T05:51:14.321Z,53.13
2019-02-17T05:53:45.484Z,51.37
2019-02-17T05:56:18.989Z,48.70
2019-02-17T05:58:50.133Z,46.50
2019-02-17T06:01:22.358Z,44.80
2019-02-17T06:03:55.751Z,46.20
2019-02-17T06:06:26.892Z,48.43
2019-02-17T06:08:59.265Z,49.37
2019-02-17T06:11:30.342Z,45.50
2019-02-17T06:14:01.814Z,55.03
2019-02-17T06:16:32.883Z,51.77
2019-02-17T06:19:04.179Z,50.73
2019-02-17T06:21:35.290Z,48.47
2019-02-17T06:24:10.723Z,50.17
2019-02-17T06:26:41.864Z,48.63
2019-02-17T06:29:15.915Z,50.30
2019-02-17T06:31:48.562Z,49.40
2019-02-17T06:34:19.722Z,48.10
2019-02-17T06:36:50.819Z,49.77
2019-02-17T06:39:21.970Z,58.77
2019-02-17T06:41:53.247Z,68.17
2019-02-17T06:44:24.398Z,61.87
2019-02-17T06:47:00.746Z,66.00
2019-02-17T06:49:32.970Z,63.37
2019-02-17T06:52:04.202Z,71.10
2019-02-17T06:54:37.007Z,71.73
2019-02-17T06:57:17.870Z,68.83
2019-02-17T06:59:49.349Z,71.80
2019-02-17T07:02:20.468Z,71.07
2019-02-17T07:05:12.614Z,70.63
2019-02-17T07:07:43.944Z,68.73
2019-02-17T07:10:15.090Z,75.40
2019-02-17T07:12:46.230Z,75.80
2019-02-17T07:15:17.395Z,80.77
2019-02-17T07:17:48.714Z,84.23
2019-02-17T07:20:20.052Z,78.07
2019-02-17T07:22:51.145Z,80.17
2019-02-17T07:25:29.774Z,86.17
2019-02-17T07:27:55.606Z,82.87
2019-02-17T07:30:26.894Z,87.80
2019-02-17T07:33:03.899Z,93.67
2019-02-17T07:35:35.073Z,92.17
2019-02-17T07:38:06.184Z,85.10
2019-02-17T07:40:37.371Z,94.70
2019-02-17T07:43:08.465Z,90.00
2019-02-17T07:45:39.679Z,95.37
2019-02-17T07:48:10.793Z,98.77
2019-02-17T07:50:45.112Z,99.03
2019-02-17T07:53:16.619Z,89.80
2019-02-17T07:55:48.132Z,96.13
2019-02-17T07:58:19.574Z,99.57
2019-02-17T08:00:51.466Z,96.57
2019-02-17T08:03:24.217Z,96.83
2019-02-17T08:05:55.689Z,99.40
2019-02-17T08:08:27.699Z,101.80
2019-02-17T08:11:04.061Z,108.60
2019-02-17T08:13:34.973Z,101.53
2019-02-17T08:16:06.390Z,106.60
2019-02-17T08:18:37.992Z,99.27
2019-02-17T08:21:15.315Z,103.13
2019-02-17T08:23:47.435Z,99.57
2019-02-17T08:26:19.486Z,101.43
2019-02-17T08:28:51.416Z,96.23
2019-02-17T08:31:24.483Z,105.70
2019-02-17T08:33:57.298Z,105.63
2019-02-17T08:36:30.406Z,106.37
2019-02-17T08:39:02.124Z,114.70
2019-02-17T08:41:33.398Z,110.93
2019-02-17T08:44:04.521Z,115.73
2019-02-17T08:46:37.755Z,107.70
2019-02-17T08:49:09.311Z,121.43
2019-02-17T08:51:40.500Z,99.47
2019-02-17T08:54:11.604Z,122.77
2019-02-17T08:56:44.058Z,116.67
2019-02-17T08:59:15.248Z,126.47
2019-02-17T09:01:46.365Z,111.97
2019-02-17T09:04:17.476Z,118.33
2019-02-17T09:06:48.601Z,102.80
2019-02-17T09:09:20.538Z,86.27
2019-02-17T09:11:52.527Z,58.63
2019-02-17T09:14:23.615Z,46.70
2019-02-17T09:16:54.922Z,42.87
2019-02-17T09:19:27.074Z,46.63
2019-02-17T09:21:58.202Z,46.70
2019-02-17T09:24:30.316Z,48.33
2019-02-17T09:27:03.687Z,51.57
2019-02-17T09:29:34.831Z,49.83
2019-02-17T09:32:15.778Z,54.37
2019-02-17T09:34:38.905Z,53.60
2019-02-17T09:37:12.559Z,56.03
2019-02-17T09:39:44.256Z,59.57
2019-02-17T09:42:16.845Z,60.27
2019-02-17T09:44:48.022Z,60.13
2019-02-17T09:47:21.713Z,54.03
2019-02-17T09:49:53.992Z,60.87
2019-02-17T09:52:25.202Z,63.37
2019-02-17T09:54:56.350Z,73.03
2019-02-17T09:57:28.542Z,71.20
2019-02-17T10:00:02.318Z,74.00
2019-02-17T10:02:33.472Z,74.33
2019-02-17T10:05:05.665Z,74.73
2019-02-17T10:07:37.363Z,74.90
2019-02-17T10:10:12.917Z,78.50
2019-02-17T10:12:44.346Z,79.57
2019-02-17T10:15:16.983Z,90.03
2019-02-17T10:17:48.429Z,86.27
2019-02-17T10:20:21.183Z,84.73
2019-02-17T10:22:53.004Z,86.27
2019-02-17T10:25:25.946Z,83.20
2019-02-17T10:27:57.687Z,88.03
2019-02-17T10:30:30.855Z,92.27
2019-02-17T10:33:03.623Z,91.37
2019-02-17T10:35:36.235Z,93.27
2019-02-17T10:38:10.167Z,99.37
2019-02-17T10:40:42.731Z,100.13
2019-02-17T10:43:14.029Z,106.47
2019-02-17T10:45:46.929Z,112.60
2019-02-17T10:48:19.045Z,106.63
2019-02-17T10:50:51.094Z,97.03
2019-02-17T10:53:22.913Z,102.80
2019-02-17T10:55:55.339Z,98.00
2019-02-17T10:58:27.353Z,93.30
2019-02-17T11:00:58.565Z,104.33
2019-02-17T11:03:31.215Z,96.53
2019-02-17T11:06:02.247Z,95.77
2019-02-17T11:08:33.418Z,103.17
2019-02-17T11:11:04.566Z,87.80
2019-02-17T11:13:35.699Z,105.13
2019-02-17T11:16:06.804Z,92.27
2019-02-17T11:18:37.927Z,109.90
2019-02-17T11:21:08.987Z,70.07
2019-02-17T11:23:40.081Z,73.07
2019-02-17T11:26:11.204Z,66.40
2019-02-17T11:28:42.289Z,75.30
2019-02-17T11:31:13.406Z,55.10
2019-02-17T11:33:44.480Z,71.03
2019-02-17T11:36:15.642Z,58.07
2019-02-17T11:38:47.042Z,67.87
2019-02-17T11:41:18.112Z,68.77
2019-02-17T11:43:49.203Z,65.97
2019-02-17T11:46:20.282Z,57.50
2019-02-17T11:48:51.365Z,66.20
2019-02-17T11:51:22.437Z,55.97
2019-02-17T11:53:53.495Z,88.73
2019-02-17T11:56:24.535Z,53.27
2019-02-17T11:58:55.608Z,55.43
2019-02-17T12:01:26.704Z,72.80
2019-02-17T12:03:57.774Z,87.97
2019-02-17T12:06:28.900Z,46.43
2019-02-17T12:08:59.977Z,45.67
2019-02-17T12:11:31.033Z,42.33
2019-02-17T12:14:02.097Z,50.57
2019-02-17T12:16:36.912Z,36.37
2019-02-17T12:19:05.932Z,31.37
2019-02-17T12:21:48.467Z,28.33
2019-02-17T12:24:26.518Z,23.27
2019-02-17T12:27:10.640Z,35.33
2019-02-17T12:29:44.434Z,24.53
2019-02-17T12:32:15.518Z,26.30
2019-02-17T12:34:46.599Z,26.97
2019-02-17T12:37:17.657Z,26.57
2019-02-17T12:39:49.004Z,27.03
2019-02-17T12:42:20.207Z,27.50
2019-02-17T12:44:51.256Z,30.83
2019-02-17T12:47:22.336Z,31.40
2019-02-17T12:49:53.396Z,30.37
2019-02-17T12:52:24.451Z,28.63
2019-02-17T12:54:55.557Z,25.57
2019-02-17T12:57:26.638Z,24.90
2019-02-17T12:59:57.682Z,23.43
2019-02-17T13:02:28.747Z,23.00
2019-02-17T13:04:59.806Z,25.10
2019-02-17T13:07:30.886Z,21.93
2019-02-17T13:10:01.950Z,21.90
2019-02-17T13:12:33.025Z,21.73
2019-02-17T13:15:04.205Z,21.93
2019-02-17T13:17:35.248Z,22.13
2019-02-17T13:20:07.639Z,21.37
2019-02-17T13:22:38.704Z,24.17
2019-02-17T13:25:11.427Z,21.70
2019-02-17T13:27:42.518Z,22.20
2019-02-17T13:30:18.056Z,17.33
2019-02-17T13:32:49.148Z,18.43
2019-02-17T13:35:20.198Z,17.63
2019-02-17T13:37:51.278Z,18.33
2019-02-17T13:40:22.371Z,16.23
2019-02-17T13:42:53.490Z,18.43
2019-02-17T13:45:24.609Z,17.83
2019-02-17T13:47:55.695Z,17.93
2019-02-17T13:50:26.793Z,15.53
2019-02-17T13:52:57.856Z,17.73
2019-02-17T13:55:29.007Z,17.50
2019-02-17T13:58:00.107Z,17.93
2019-02-17T14:00:31.244Z,15.60
2019-02-17T14:03:04.417Z,16.80
2019-02-17T14:05:35.070Z,17.03
2019-02-17T14:08:06.151Z,17.37
2019-02-17T14:10:37.251Z,16.13
2019-02-17T14:13:08.345Z,18.27
2019-02-17T14:15:39.458Z,16.43
2019-02-17T14:18:10.539Z,17.67
2019-02-17T14:20:41.703Z,20.47
2019-02-17T14:23:12.802Z,21.03
2019-02-17T14:25:43.950Z,17.77
2019-02-17T14:28:15.972Z,16.97
2019-02-17T14:30:47.071Z,19.40
2019-02-17T14:33:18.127Z,19.13
2019-02-17T14:35:49.237Z,22.27
2019-02-17T14:38:20.406Z,28.40
2019-02-17T14:40:51.517Z,29.87
2019-02-17T14:43:22.641Z,24.23
2019-02-17T14:45:53.762Z,26.47
2019-02-17T14:48:24.809Z,54.43
2019-02-17T14:50:55.942Z,66.30
2019-02-17T14:53:27.012Z,86.07
2019-02-17T14:55:58.152Z,87.93
2019-02-17T14:58:29.235Z,113.73
2019-02-17T15:01:00.343Z,160.53
2019-02-17T15:03:31.395Z,143.03
2019-02-17T15:06:02.523Z,157.13
2019-02-17T15:08:33.617Z,138.70
2019-02-17T15:11:04.745Z,148.33
2019-02-17T15:13:35.813Z,149.73
2019-02-17T15:16:06.939Z,145.73
2019-02-17T15:18:38.004Z,114.17
2019-02-17T15:21:09.165Z,53.87
2019-02-17T15:23:40.828Z,42.20
2019-02-17T15:26:11.942Z,39.97
2019-02-17T15:28:50.589Z,35.53
2019-02-17T15:31:15.876Z,33.90
2019-02-17T15:33:46.994Z,32.90
2019-02-17T15:36:18.090Z,33.43
2019-02-17T15:38:49.193Z,29.47
2019-02-17T15:41:20.433Z,28.90
2019-02-17T15:43:52.124Z,26.70
2019-02-17T15:46:23.225Z,26.27
2019-02-17T15:48:54.315Z,26.47
2019-02-17T15:51:25.420Z,24.03
2019-02-17T15:53:56.498Z,23.00
2019-02-17T15:56:27.594Z,23.83
2019-02-17T15:58:58.706Z,24.23
2019-02-17T16:01:29.864Z,24.20
2019-02-17T16:04:00.958Z,26.50
2019-02-17T16:06:32.063Z,26.37
2019-02-17T16:09:03.158Z,29.00
2019-02-17T16:11:34.248Z,25.13
2019-02-17T16:14:05.323Z,29.70
2019-02-17T16:16:36.402Z,37.60
2019-02-17T16:19:07.477Z,40.70
2019-02-17T16:21:38.552Z,40.27
2019-02-17T16:24:09.699Z,45.10
2019-02-17T16:26:40.795Z,46.90
2019-02-17T16:29:11.889Z,48.00
2019-02-17T16:31:42.977Z,45.27
2019-02-17T16:34:14.097Z,43.03
2019-02-17T16:36:45.166Z,38.63
2019-02-17T16:39:16.227Z,40.53
2019-02-17T16:41:47.396Z,36.63
2019-02-17T16:44:18.587Z,37.57
2019-02-17T16:46:49.638Z,33.10
2019-02-17T16:49:20.686Z,36.53
2019-02-17T16:51:51.747Z,34.20
2019-02-17T16:54:22.801Z,40.00
2019-02-17T16:56:53.859Z,48.20
2019-02-17T16:59:25.053Z,54.03
2019-02-17T17:01:56.164Z,68.30
2019-02-17T17:04:27.258Z,60.63
2019-02-17T17:06:58.410Z,57.03
2019-02-17T17:09:29.516Z,81.00
2019-02-17T17:12:00.578Z,274.93
2019-02-17T17:14:31.849Z,314.97
2019-02-17T17:17:02.927Z,284.47
2019-02-17T17:19:34.059Z,285.23
2019-02-17T17:22:05.175Z,304.00
2019-02-17T17:24:36.286Z,319.07
2019-02-17T17:27:07.395Z,311.30
2019-02-17T17:29:38.522Z,316.23
2019-02-17T17:32:09.611Z,322.33
2019-02-17T17:34:40.709Z,302.57
2019-02-17T17:37:11.788Z,295.80
2019-02-17T17:39:42.889Z,296.43
2019-02-17T17:42:14.015Z,299.93
2019-02-17T17:44:45.172Z,291.80
2019-02-17T17:47:16.284Z,296.87
2019-02-17T17:49:47.438Z,302.80
2019-02-17T17:52:18.561Z,293.37
2019-02-17T17:54:49.681Z,278.23
2019-02-17T17:57:20.750Z,275.93
2019-02-17T17:59:51.822Z,261.80
2019-02-17T18:02:22.895Z,265.77
2019-02-17T18:04:54.021Z,264.63
2019-02-17T18:07:25.079Z,264.20
2019-02-17T18:09:56.183Z,273.23
2019-02-17T18:12:27.271Z,288.53
2019-02-17T18:14:58.365Z,276.30
2019-02-17T18:17:29.457Z,270.37
2019-02-17T18:20:00.503Z,281.40
2019-02-17T18:22:31.581Z,279.00
2019-02-17T18:25:02.664Z,267.20
2019-02-17T18:27:33.736Z,261.43
2019-02-17T18:30:05.070Z,243.37
2019-02-17T18:32:36.149Z,245.93
2019-02-17T18:35:07.630Z,262.30
2019-02-17T18:37:38.818Z,215.70
2019-02-17T18:40:11.263Z,227.67
2019-02-17T18:42:42.342Z,245.87
2019-02-17T18:45:13.841Z,280.37
2019-02-17T18:47:44.929Z,299.53
2019-02-17T18:50:16.028Z,310.20
2019-02-17T18:52:47.104Z,296.63
2019-02-17T18:55:18.229Z,312.17
2019-02-17T18:57:51.001Z,301.03
2019-02-17T19:00:22.145Z,297.37
2019-02-17T19:02:53.231Z,299.57
2019-02-17T19:05:31.657Z,316.47
2019-02-17T19:07:57.114Z,307.10
2019-02-17T19:10:28.232Z,277.53
2019-02-17T19:12:59.301Z,262.00
2019-02-17T19:15:30.375Z,273.00
2019-02-17T19:18:01.453Z,274.57
2019-02-17T19:20:32.659Z,237.47
2019-02-17T19:23:04.938Z,218.43
2019-02-17T19:25:36.220Z,205.20
2019-02-17T19:28:07.329Z,204.67
2019-02-17T19:30:38.414Z,219.07
2019-02-17T19:33:09.558Z,197.70
2019-02-17T19:35:42.178Z,222.87
2019-02-17T19:38:13.493Z,222.90
2019-02-17T19:40:44.669Z,216.53
2019-02-17T19:43:15.732Z,232.33
2019-02-17T19:45:46.854Z,234.20
2019-02-17T19:48:17.939Z,230.17
2019-02-17T19:50:49.052Z,221.07
2019-02-17T19:53:20.781Z,202.07
2019-02-17T19:55:52.219Z,211.87
2019-02-17T19:58:23.411Z,207.03
2019-02-17T20:00:54.492Z,215.83
2019-02-17T20:03:40.464Z,206.90
2019-02-17T20:06:12.758Z,210.47
2019-02-17T20:08:44.107Z,204.83
2019-02-17T20:11:15.208Z,225.20
2019-02-17T20:13:46.284Z,211.93
2019-02-17T20:16:17.347Z,210.03
2019-02-17T20:18:48.482Z,217.47
2019-02-17T20:21:19.514Z,211.07
2019-02-17T20:23:50.608Z,201.00
2019-02-17T20:26:21.668Z,189.27
2019-02-17T20:28:57.289Z,208.23
2019-02-17T20:31:25.479Z,178.07
2019-02-17T20:33:57.289Z,205.37
2019-02-17T20:36:28.383Z,208.17
2019-02-17T20:38:59.468Z,182.77
2019-02-17T20:41:31.176Z,177.63
2019-02-17T20:44:02.287Z,194.67
2019-02-17T20:46:35.213Z,188.03
2019-02-17T20:49:09.733Z,182.20
2019-02-17T20:51:42.889Z,198.13
2019-02-17T20:54:15.067Z,190.53
2019-02-17T20:56:47.047Z,198.57
2019-02-17T20:59:19.420Z,197.40
2019-02-17T21:01:52.969Z,207.07
2019-02-17T21:04:25.663Z,192.70
2019-02-17T21:07:00.015Z,179.23
2019-02-17T21:09:31.327Z,199.33
2019-02-17T21:12:02.728Z,189.80
2019-02-17T21:14:36.944Z,194.23
2019-02-17T21:17:08.776Z,196.77
2019-02-17T21:19:39.913Z,198.43
2019-02-17T21:22:10.988Z,187.60
2019-02-17T21:24:42.095Z,187.30
2019-02-17T21:27:13.234Z,182.50
2019-02-17T21:29:44.376Z,180.33
2019-02-17T21:32:15.476Z,173.13
2019-02-17T21:34:46.589Z,178.40
2019-02-17T21:37:17.668Z,180.60
2019-02-17T21:39:48.804Z,198.23
2019-02-17T21:42:19.941Z,205.47
2019-02-17T21:44:51.047Z,196.87
2019-02-17T21:47:22.198Z,199.17
2019-02-17T21:49:53.329Z,186.67
2019-02-17T21:52:24.414Z,185.50
2019-02-17T21:54:56.651Z,196.13
2019-02-17T21:57:28.043Z,221.80
2019-02-17T22:00:00.379Z,213.47
2019-02-17T22:02:32.366Z,217.90
2019-02-17T22:05:03.616Z,213.80
2019-02-17T22:07:35.171Z,215.57
2019-02-17T22:10:06.908Z,205.13
2019-02-17T22:12:38.080Z,190.67
2019-02-17T22:15:13.981Z,205.60
2019-02-17T22:17:44.799Z,181.70
2019-02-17T22:20:15.717Z,186.63
2019-02-17T22:22:46.842Z,195.43
2019-02-17T22:25:18.396Z,182.63
2019-02-17T22:27:49.521Z,197.60
2019-02-17T22:30:20.702Z,201.60
2019-02-17T22:32:52.036Z,219.30
2019-02-17T22:35:23.168Z,179.17
2019-02-17T22:37:55.891Z,195.47
2019-02-17T22:40:27.927Z,195.87
2019-02-17T22:42:59.079Z,217.13
2019-02-17T22:45:31.057Z,234.33
2019-02-17T22:48:02.237Z,219.97
2019-02-17T22:50:33.361Z,225.87
2019-02-17T22:53:04.474Z,197.07
2019-02-17T22:55:35.552Z,203.03
2019-02-17T22:58:06.767Z,199.30
2019-02-17T23:00:48.241Z,193.83
2019-02-17T23:03:19.438Z,180.73
2019-02-17T23:05:51.204Z,188.47
2019-02-17T23:08:22.227Z,200.37
2019-02-17T23:10:53.346Z,203.70
2019-02-17T23:13:24.411Z,196.67
2019-02-17T23:15:55.521Z,204.90
2019-02-17T23:18:26.730Z,192.20
2019-02-17T23:20:57.844Z,212.17
2019-02-17T23:23:28.946Z,219.00
2019-02-17T23:26:00.657Z,207.47
2019-02-17T23:28:32.039Z,211.17
2019-02-17T23:31:03.159Z,210.37
2019-02-17T23:33:34.233Z,186.93
2019-02-17T23:36:05.492Z,209.33
2019-02-17T23:38:37.566Z,207.77
2019-02-17T23:41:08.850Z,205.00
2019-02-17T23:43:39.946Z,202.17
2019-02-17T23:46:11.006Z,209.37
2019-02-17T23:48:42.080Z,203.47
2019-02-17T23:51:13.173Z,195.70
2019-02-17T23:53:44.252Z,217.73
2019-02-17T23:56:15.351Z,209.20
2019-02-17T23:58:46.473Z,192.10
